<?xml version='1.0' encoding='utf-8'?>
<gpx xmlns="http://www.topografix.com/GPX/1/1" creator="HOLUX ezTour Plus" version="1.1">
<metadata>
<link href="http://www.holux.com"><text>HOLUX Technology, Inc.</text></link>
<time>2012-08-01T18:49:32Z</time></metadata>
<trk>
<name>raw6</name>
<trkseg>
<trkpt lat="63.990524292" lon="-19.060598373">
<ele>591.5</ele>
<time>2012-07-23T09:43:34Z</time>
<speed>0.010000</speed>
<extensions>
<speed>0.0</speed>
<temp>0.00</temp>
<bpm>0</bpm>
<rpm>0.00</rpm>
</extensions>
</trkpt>
<trkpt lat="63.990764618" lon="-19.060718536">
<ele>590.7</ele>
<time>2012-07-23T09:44:19Z</time>
<speed>0.940000</speed>
<extensions>
<speed>0.9</speed>
<temp>0.00</temp>
<bpm>0</bpm>
<rpm>0.00</rpm>
</extensions>
</trkpt>
<trkpt lat="63.991828918" lon="-19.059213638">
<ele>588.9</ele>
<time>2012-07-23T09:46:34Z</time>
<speed>0.640000</speed>
<extensions>
<speed>0.6</speed>
<temp>0.00</temp>
<bpm>0</bpm>
<rpm>0.00</rpm>
</extensions>
</trkpt>
<trkpt lat="63.992984772" lon="-19.060043335">
<ele>588.2</ele>
<time>2012-07-23T09:48:09Z</time>
<speed>1.110000</speed>
<extensions>
<speed>1.1</speed>
<temp>0.00</temp>
<bpm>0</bpm>
<rpm>0.00</rpm>
</extensions>
</trkpt>
<trkpt lat="63.993484497" lon="-19.060718536">
<ele>588.2</ele>
<time>2012-07-23T09:48:59Z</time>
<speed>0.930000</speed>
<extensions>
<speed>0.9</speed>
<temp>0.00</temp>
<bpm>0</bpm>
<rpm>0.00</rpm>
</extensions>
</trkpt>
<trkpt lat="63.994396210" lon="-19.060935974">
<ele>590.6</ele>
<time>2012-07-23T09:50:29Z</time>
<speed>1.140000</speed>
<extensions>
<speed>1.1</speed>
<temp>0.00</temp>
<bpm>0</bpm>
<rpm>0.00</rpm>
</extensions>
</trkpt>
<trkpt lat="63.994613647" lon="-19.060495377">
<ele>590.4</ele>
<time>2012-07-23T09:50:59Z</time>
<speed>0.980000</speed>
<extensions>
<speed>1.0</speed>
<temp>0.00</temp>
<bpm>0</bpm>
<rpm>0.00</rpm>
</extensions>
</trkpt>
<trkpt lat="63.994525909" lon="-19.060129166">
<ele>588.9</ele>
<time>2012-07-23T09:51:34Z</time>
<extensions>
<speed>0.0</speed>
<temp>0.00</temp>
<bpm>0</bpm>
<rpm>0.00</rpm>
</extensions>
</trkpt>
<trkpt lat="63.995601654" lon="-19.059139252">
<ele>588.7</ele>
<time>2012-07-23T09:53:34Z</time>
<speed>1.270000</speed>
<extensions>
<speed>1.3</speed>
<temp>0.00</temp>
<bpm>0</bpm>
<rpm>0.00</rpm>
</extensions>
</trkpt>
<trkpt lat="63.996555328" lon="-19.056873322">
<ele>586.9</ele>
<time>2012-07-23T09:55:39Z</time>
<speed>1.000000</speed>
<extensions>
<speed>1.0</speed>
<temp>0.00</temp>
<bpm>0</bpm>
<rpm>0.00</rpm>
</extensions>
</trkpt>
<trkpt lat="63.998058319" lon="-19.051403046">
<ele>585.9</ele>
<time>2012-07-23T09:59:39Z</time>
<speed>1.470000</speed>
<extensions>
<speed>1.5</speed>
<temp>0.00</temp>
<bpm>0</bpm>
<rpm>0.00</rpm>
</extensions>
</trkpt>
<trkpt lat="63.998596191" lon="-19.050907135">
<ele>587.3</ele>
<time>2012-07-23T10:00:24Z</time>
<speed>1.040000</speed>
<extensions>
<speed>1.0</speed>
<temp>0.00</temp>
<bpm>0</bpm>
<rpm>0.00</rpm>
</extensions>
</trkpt>
<trkpt lat="63.999347687" lon="-19.051160812">
<ele>593.3</ele>
<time>2012-07-23T10:01:49Z</time>
<speed>1.390000</speed>
<extensions>
<speed>1.4</speed>
<temp>0.00</temp>
<bpm>0</bpm>
<rpm>0.00</rpm>
</extensions>
</trkpt>
<trkpt lat="63.999786377" lon="-19.050930023">
<ele>595.1</ele>
<time>2012-07-23T10:02:29Z</time>
<speed>1.300000</speed>
<extensions>
<speed>1.3</speed>
<temp>0.00</temp>
<bpm>0</bpm>
<rpm>0.00</rpm>
</extensions>
</trkpt>
<trkpt lat="64.001136780" lon="-19.049507141">
<ele>595.7</ele>
<time>2012-07-23T10:04:44Z</time>
<speed>1.180000</speed>
<extensions>
<speed>1.2</speed>
<temp>0.00</temp>
<bpm>0</bpm>
<rpm>0.00</rpm>
</extensions>
</trkpt>
<trkpt lat="64.001167297" lon="-19.050317764">
<ele>596.8</ele>
<time>2012-07-23T10:05:14Z</time>
<speed>1.510000</speed>
<extensions>
<speed>1.5</speed>
<temp>0.00</temp>
<bpm>0</bpm>
<rpm>0.00</rpm>
</extensions>
</trkpt>
<trkpt lat="64.001747131" lon="-19.051918030">
<ele>602.6</ele>
<time>2012-07-23T10:06:44Z</time>
<speed>0.370000</speed>
<extensions>
<speed>0.4</speed>
<temp>0.00</temp>
<bpm>0</bpm>
<rpm>0.00</rpm>
</extensions>
</trkpt>
<trkpt lat="64.002044678" lon="-19.053825378">
<ele>612.2</ele>
<time>2012-07-23T10:08:54Z</time>
<speed>1.210000</speed>
<extensions>
<speed>1.2</speed>
<temp>0.00</temp>
<bpm>0</bpm>
<rpm>0.00</rpm>
</extensions>
</trkpt>
<trkpt lat="64.002891541" lon="-19.054357529">
<ele>641.6</ele>
<time>2012-07-23T10:11:54Z</time>
<speed>1.420000</speed>
<extensions>
<speed>1.4</speed>
<temp>0.00</temp>
<bpm>0</bpm>
<rpm>0.00</rpm>
</extensions>
</trkpt>
<trkpt lat="64.003402710" lon="-19.055429459">
<ele>657.6</ele>
<time>2012-07-23T10:13:49Z</time>
<speed>0.610000</speed>
<extensions>
<speed>0.6</speed>
<temp>0.00</temp>
<bpm>0</bpm>
<rpm>0.00</rpm>
</extensions>
</trkpt>
<trkpt lat="64.003829956" lon="-19.055454254">
<ele>679.5</ele>
<time>2012-07-23T10:15:44Z</time>
<speed>0.510000</speed>
<extensions>
<speed>0.5</speed>
<temp>0.00</temp>
<bpm>0</bpm>
<rpm>0.00</rpm>
</extensions>
</trkpt>
<trkpt lat="64.004249573" lon="-19.053529739">
<ele>681.4</ele>
<time>2012-07-23T10:19:29Z</time>
<speed>1.370000</speed>
<extensions>
<speed>1.4</speed>
<temp>0.00</temp>
<bpm>0</bpm>
<rpm>0.00</rpm>
</extensions>
</trkpt>
<trkpt lat="64.004508972" lon="-19.053194046">
<ele>681.9</ele>
<time>2012-07-23T10:20:14Z</time>
<speed>1.400000</speed>
<extensions>
<speed>1.4</speed>
<temp>0.00</temp>
<bpm>0</bpm>
<rpm>0.00</rpm>
</extensions>
</trkpt>
<trkpt lat="64.005126953" lon="-19.053266525">
<ele>697.2</ele>
<time>2012-07-23T10:21:39Z</time>
<speed>1.150000</speed>
<extensions>
<speed>1.1</speed>
<temp>0.00</temp>
<bpm>0</bpm>
<rpm>0.00</rpm>
</extensions>
</trkpt>
<trkpt lat="64.005493164" lon="-19.052850723">
<ele>705.6</ele>
<time>2012-07-23T10:22:39Z</time>
<speed>0.210000</speed>
<extensions>
<speed>0.2</speed>
<temp>0.00</temp>
<bpm>0</bpm>
<rpm>0.00</rpm>
</extensions>
</trkpt>
<trkpt lat="64.006492615" lon="-19.050836563">
<ele>697.1</ele>
<time>2012-07-23T10:25:14Z</time>
<speed>1.220000</speed>
<extensions>
<speed>1.2</speed>
<temp>0.00</temp>
<bpm>0</bpm>
<rpm>0.00</rpm>
</extensions>
</trkpt>
<trkpt lat="64.006965637" lon="-19.048496246">
<ele>708.8</ele>
<time>2012-07-23T10:27:19Z</time>
<speed>0.890000</speed>
<extensions>
<speed>0.9</speed>
<temp>0.00</temp>
<bpm>0</bpm>
<rpm>0.00</rpm>
</extensions>
</trkpt>
<trkpt lat="64.008056641" lon="-19.046539307">
<ele>684.7</ele>
<time>2012-07-23T10:33:04Z</time>
<speed>0.590000</speed>
<extensions>
<speed>0.6</speed>
<temp>0.00</temp>
<bpm>0</bpm>
<rpm>0.00</rpm>
</extensions>
</trkpt>
<trkpt lat="64.010513306" lon="-19.044939041">
<ele>643.5</ele>
<time>2012-07-23T10:41:14Z</time>
<speed>0.320000</speed>
<extensions>
<speed>0.3</speed>
<temp>0.00</temp>
<bpm>0</bpm>
<rpm>0.00</rpm>
</extensions>
</trkpt>
<trkpt lat="64.011413574" lon="-19.045141220">
<ele>627.3</ele>
<time>2012-07-23T10:43:24Z</time>
<speed>1.140000</speed>
<extensions>
<speed>1.1</speed>
<temp>0.00</temp>
<bpm>0</bpm>
<rpm>0.00</rpm>
</extensions>
</trkpt>
<trkpt lat="64.012306213" lon="-19.046100616">
<ele>618.7</ele>
<time>2012-07-23T10:45:24Z</time>
<speed>0.950000</speed>
<extensions>
<speed>1.0</speed>
<temp>0.00</temp>
<bpm>0</bpm>
<rpm>0.00</rpm>
</extensions>
</trkpt>
<trkpt lat="64.013160706" lon="-19.046205521">
<ele>624.5</ele>
<time>2012-07-23T10:47:09Z</time>
<speed>0.960000</speed>
<extensions>
<speed>1.0</speed>
<temp>0.00</temp>
<bpm>0</bpm>
<rpm>0.00</rpm>
</extensions>
</trkpt>
<trkpt lat="64.013687134" lon="-19.045804977">
<ele>615.7</ele>
<time>2012-07-23T10:48:24Z</time>
<speed>0.920000</speed>
<extensions>
<speed>0.9</speed>
<temp>0.00</temp>
<bpm>0</bpm>
<rpm>0.00</rpm>
</extensions>
</trkpt>
<trkpt lat="64.014053345" lon="-19.044557571">
<ele>601.2</ele>
<time>2012-07-23T10:49:44Z</time>
<speed>1.080000</speed>
<extensions>
<speed>1.1</speed>
<temp>0.00</temp>
<bpm>0</bpm>
<rpm>0.00</rpm>
</extensions>
</trkpt>
<trkpt lat="64.014068604" lon="-19.043563843">
<ele>594.8</ele>
<time>2012-07-23T10:50:34Z</time>
<speed>1.100000</speed>
<extensions>
<speed>1.1</speed>
<temp>0.00</temp>
<bpm>0</bpm>
<rpm>0.00</rpm>
</extensions>
</trkpt>
<trkpt lat="64.013786316" lon="-19.043045044">
<ele>594.0</ele>
<time>2012-07-23T10:51:44Z</time>
<extensions>
<speed>0.0</speed>
<temp>0.00</temp>
<bpm>0</bpm>
<rpm>0.00</rpm>
</extensions>
</trkpt>
<trkpt lat="64.012924194" lon="-19.042469025">
<ele>598.3</ele>
<time>2012-07-23T10:53:19Z</time>
<speed>1.170000</speed>
<extensions>
<speed>1.2</speed>
<temp>0.00</temp>
<bpm>0</bpm>
<rpm>0.00</rpm>
</extensions>
</trkpt>
<trkpt lat="64.012687683" lon="-19.041852951">
<ele>601.8</ele>
<time>2012-07-23T10:53:54Z</time>
<speed>0.480000</speed>
<extensions>
<speed>0.5</speed>
<temp>0.00</temp>
<bpm>0</bpm>
<rpm>0.00</rpm>
</extensions>
</trkpt>
<trkpt lat="64.012985229" lon="-19.041093826">
<ele>617.5</ele>
<time>2012-07-23T10:55:34Z</time>
<speed>0.440000</speed>
<extensions>
<speed>0.4</speed>
<temp>0.00</temp>
<bpm>0</bpm>
<rpm>0.00</rpm>
</extensions>
</trkpt>
<trkpt lat="64.013221741" lon="-19.041276932">
<ele>620.4</ele>
<time>2012-07-23T10:56:04Z</time>
<speed>1.420000</speed>
<extensions>
<speed>1.4</speed>
<temp>0.00</temp>
<bpm>0</bpm>
<rpm>0.00</rpm>
</extensions>
</trkpt>
<trkpt lat="64.013664246" lon="-19.040512085">
<ele>614.4</ele>
<time>2012-07-23T11:03:09Z</time>
<speed>0.330000</speed>
<extensions>
<speed>0.3</speed>
<temp>0.00</temp>
<bpm>0</bpm>
<rpm>0.00</rpm>
</extensions>
</trkpt>
<trkpt lat="64.013763428" lon="-19.039842606">
<ele>595.6</ele>
<time>2012-07-23T11:04:14Z</time>
<speed>0.570000</speed>
<extensions>
<speed>0.6</speed>
<temp>0.00</temp>
<bpm>0</bpm>
<rpm>0.00</rpm>
</extensions>
</trkpt>
<trkpt lat="64.013969421" lon="-19.040826797">
<ele>601.9</ele>
<time>2012-07-23T11:05:04Z</time>
<speed>1.320000</speed>
<extensions>
<speed>1.3</speed>
<temp>0.00</temp>
<bpm>0</bpm>
<rpm>0.00</rpm>
</extensions>
</trkpt>
<trkpt lat="64.013816833" lon="-19.042308807">
<ele>598.1</ele>
<time>2012-07-23T11:06:14Z</time>
<speed>1.390000</speed>
<extensions>
<speed>1.4</speed>
<temp>0.00</temp>
<bpm>0</bpm>
<rpm>0.00</rpm>
</extensions>
</trkpt>
<trkpt lat="64.014114380" lon="-19.042848587">
<ele>594.7</ele>
<time>2012-07-23T11:07:14Z</time>
<speed>0.010000</speed>
<extensions>
<speed>0.0</speed>
<temp>0.00</temp>
<bpm>0</bpm>
<rpm>0.00</rpm>
</extensions>
</trkpt>
<trkpt lat="64.017341614" lon="-19.038991928">
<ele>595.5</ele>
<time>2012-07-23T11:13:49Z</time>
<speed>0.810000</speed>
<extensions>
<speed>0.8</speed>
<temp>0.00</temp>
<bpm>0</bpm>
<rpm>0.00</rpm>
</extensions>
</trkpt>
<trkpt lat="64.018333435" lon="-19.038335800">
<ele>601.3</ele>
<time>2012-07-23T11:15:29Z</time>
<speed>1.070000</speed>
<extensions>
<speed>1.1</speed>
<temp>0.00</temp>
<bpm>0</bpm>
<rpm>0.00</rpm>
</extensions>
</trkpt>
<trkpt lat="64.019081116" lon="-19.038370132">
<ele>597.6</ele>
<time>2012-07-23T11:16:34Z</time>
<speed>1.310000</speed>
<extensions>
<speed>1.3</speed>
<temp>0.00</temp>
<bpm>0</bpm>
<rpm>0.00</rpm>
</extensions>
</trkpt>
<trkpt lat="64.021530151" lon="-19.035749435">
<ele>583.8</ele>
<time>2012-07-23T11:20:24Z</time>
<speed>1.410000</speed>
<extensions>
<speed>1.4</speed>
<temp>0.00</temp>
<bpm>0</bpm>
<rpm>0.00</rpm>
</extensions>
</trkpt>
<trkpt lat="64.023185730" lon="-19.034549713">
<ele>577.5</ele>
<time>2012-07-23T11:22:59Z</time>
<speed>1.420000</speed>
<extensions>
<speed>1.4</speed>
<temp>0.00</temp>
<bpm>0</bpm>
<rpm>0.00</rpm>
</extensions>
</trkpt>
<trkpt lat="64.024177551" lon="-19.034219742">
<ele>575.0</ele>
<time>2012-07-23T11:24:24Z</time>
<speed>1.450000</speed>
<extensions>
<speed>1.4</speed>
<temp>0.00</temp>
<bpm>0</bpm>
<rpm>0.00</rpm>
</extensions>
</trkpt>
<trkpt lat="64.025222778" lon="-19.033311844">
<ele>577.2</ele>
<time>2012-07-23T11:25:59Z</time>
<speed>0.440000</speed>
<extensions>
<speed>0.4</speed>
<temp>0.00</temp>
<bpm>0</bpm>
<rpm>0.00</rpm>
</extensions>
</trkpt>
<trkpt lat="64.025588989" lon="-19.031951904">
<ele>577.6</ele>
<time>2012-07-23T11:26:59Z</time>
<speed>1.360000</speed>
<extensions>
<speed>1.4</speed>
<temp>0.00</temp>
<bpm>0</bpm>
<rpm>0.00</rpm>
</extensions>
</trkpt>
<trkpt lat="64.026107788" lon="-19.028097153">
<ele>577.9</ele>
<time>2012-07-23T11:29:24Z</time>
<speed>1.450000</speed>
<extensions>
<speed>1.4</speed>
<temp>0.00</temp>
<bpm>0</bpm>
<rpm>0.00</rpm>
</extensions>
</trkpt>
<trkpt lat="64.025688171" lon="-19.022409439">
<ele>584.3</ele>
<time>2012-07-23T11:32:54Z</time>
<speed>1.310000</speed>
<extensions>
<speed>1.3</speed>
<temp>0.00</temp>
<bpm>0</bpm>
<rpm>0.00</rpm>
</extensions>
</trkpt>
<trkpt lat="64.025833130" lon="-19.020950317">
<ele>581.2</ele>
<time>2012-07-23T11:33:49Z</time>
<speed>1.520000</speed>
<extensions>
<speed>1.5</speed>
<temp>0.00</temp>
<bpm>0</bpm>
<rpm>0.00</rpm>
</extensions>
</trkpt>
<trkpt lat="64.026985168" lon="-19.018114090">
<ele>579.4</ele>
<time>2012-07-23T11:36:09Z</time>
<speed>1.480000</speed>
<extensions>
<speed>1.5</speed>
<temp>0.00</temp>
<bpm>0</bpm>
<rpm>0.00</rpm>
</extensions>
</trkpt>
<trkpt lat="64.027114868" lon="-19.016843796">
<ele>585.0</ele>
<time>2012-07-23T11:36:59Z</time>
<speed>1.310000</speed>
<extensions>
<speed>1.3</speed>
<temp>0.00</temp>
<bpm>0</bpm>
<rpm>0.00</rpm>
</extensions>
</trkpt>
<trkpt lat="64.027732849" lon="-19.016487122">
<ele>589.1</ele>
<time>2012-07-23T11:37:54Z</time>
<speed>1.570000</speed>
<extensions>
<speed>1.6</speed>
<temp>0.00</temp>
<bpm>0</bpm>
<rpm>0.00</rpm>
</extensions>
</trkpt>
<trkpt lat="64.028717041" lon="-19.014104843">
<ele>598.0</ele>
<time>2012-07-23T11:40:14Z</time>
<speed>0.840000</speed>
<extensions>
<speed>0.8</speed>
<temp>0.00</temp>
<bpm>0</bpm>
<rpm>0.00</rpm>
</extensions>
</trkpt>
<trkpt lat="64.028617859" lon="-19.013565063">
<ele>605.7</ele>
<time>2012-07-23T11:40:44Z</time>
<speed>1.060000</speed>
<extensions>
<speed>1.1</speed>
<temp>0.00</temp>
<bpm>0</bpm>
<rpm>0.00</rpm>
</extensions>
</trkpt>
<trkpt lat="64.028816223" lon="-19.012508392">
<ele>609.1</ele>
<time>2012-07-23T11:41:34Z</time>
<speed>0.840000</speed>
<extensions>
<speed>0.8</speed>
<temp>0.00</temp>
<bpm>0</bpm>
<rpm>0.00</rpm>
</extensions>
</trkpt>
<trkpt lat="64.028007507" lon="-19.011049271">
<ele>619.7</ele>
<time>2012-07-23T11:43:19Z</time>
<speed>1.210000</speed>
<extensions>
<speed>1.2</speed>
<temp>0.00</temp>
<bpm>0</bpm>
<rpm>0.00</rpm>
</extensions>
</trkpt>
<trkpt lat="64.028045654" lon="-19.010421753">
<ele>622.0</ele>
<time>2012-07-23T11:43:49Z</time>
<speed>1.340000</speed>
<extensions>
<speed>1.3</speed>
<temp>0.00</temp>
<bpm>0</bpm>
<rpm>0.00</rpm>
</extensions>
</trkpt>
<trkpt lat="64.029090881" lon="-19.009328842">
<ele>635.0</ele>
<time>2012-07-23T11:46:04Z</time>
<speed>0.920000</speed>
<extensions>
<speed>0.9</speed>
<temp>0.00</temp>
<bpm>0</bpm>
<rpm>0.00</rpm>
</extensions>
</trkpt>
<trkpt lat="64.029922485" lon="-19.007728577">
<ele>653.2</ele>
<time>2012-07-23T11:51:19Z</time>
<speed>0.010000</speed>
<extensions>
<speed>0.0</speed>
<temp>0.00</temp>
<bpm>0</bpm>
<rpm>0.00</rpm>
</extensions>
</trkpt>
<trkpt lat="64.029983521" lon="-19.007947922">
<ele>653.5</ele>
<time>2012-07-23T11:55:54Z</time>
<speed>1.090000</speed>
<extensions>
<speed>1.1</speed>
<temp>0.00</temp>
<bpm>0</bpm>
<rpm>0.00</rpm>
</extensions>
</trkpt>
<trkpt lat="64.029518127" lon="-19.006729126">
<ele>658.0</ele>
<time>2012-07-23T11:59:44Z</time>
<speed>1.100000</speed>
<extensions>
<speed>1.1</speed>
<temp>0.00</temp>
<bpm>0</bpm>
<rpm>0.00</rpm>
</extensions>
</trkpt>
<trkpt lat="64.028800964" lon="-19.006664276">
<ele>647.9</ele>
<time>2012-07-23T12:00:49Z</time>
<speed>1.320000</speed>
<extensions>
<speed>1.3</speed>
<temp>0.00</temp>
<bpm>0</bpm>
<rpm>0.00</rpm>
</extensions>
</trkpt>
<trkpt lat="64.027015686" lon="-19.009761810">
<ele>629.4</ele>
<time>2012-07-23T12:04:24Z</time>
<speed>0.870000</speed>
<extensions>
<speed>0.9</speed>
<temp>0.00</temp>
<bpm>0</bpm>
<rpm>0.00</rpm>
</extensions>
</trkpt>
<trkpt lat="64.026191711" lon="-19.010194778">
<ele>632.8</ele>
<time>2012-07-23T12:05:39Z</time>
<speed>1.370000</speed>
<extensions>
<speed>1.4</speed>
<temp>0.00</temp>
<bpm>0</bpm>
<rpm>0.00</rpm>
</extensions>
</trkpt>
<trkpt lat="64.025680542" lon="-19.011533737">
<ele>627.6</ele>
<time>2012-07-23T12:06:44Z</time>
<speed>1.160000</speed>
<extensions>
<speed>1.2</speed>
<temp>0.00</temp>
<bpm>0</bpm>
<rpm>0.00</rpm>
</extensions>
</trkpt>
<trkpt lat="64.025299072" lon="-19.011989594">
<ele>624.8</ele>
<time>2012-07-23T12:07:24Z</time>
<speed>1.450000</speed>
<extensions>
<speed>1.4</speed>
<temp>0.00</temp>
<bpm>0</bpm>
<rpm>0.00</rpm>
</extensions>
</trkpt>
<trkpt lat="64.021781921" lon="-19.007062912">
<ele>572.1</ele>
<time>2012-07-23T12:14:49Z</time>
<speed>1.190000</speed>
<extensions>
<speed>1.2</speed>
<temp>0.00</temp>
<bpm>0</bpm>
<rpm>0.00</rpm>
</extensions>
</trkpt>
<trkpt lat="64.020477295" lon="-19.006338120">
<ele>578.2</ele>
<time>2012-07-23T12:17:04Z</time>
<speed>1.390000</speed>
<extensions>
<speed>1.4</speed>
<temp>0.00</temp>
<bpm>0</bpm>
<rpm>0.00</rpm>
</extensions>
</trkpt>
<trkpt lat="64.019309998" lon="-19.006668091">
<ele>579.1</ele>
<time>2012-07-23T12:18:44Z</time>
<speed>1.430000</speed>
<extensions>
<speed>1.4</speed>
<temp>0.00</temp>
<bpm>0</bpm>
<rpm>0.00</rpm>
</extensions>
</trkpt>
<trkpt lat="64.018737793" lon="-19.008237839">
<ele>580.4</ele>
<time>2012-07-23T12:19:59Z</time>
<speed>1.110000</speed>
<extensions>
<speed>1.1</speed>
<temp>0.00</temp>
<bpm>0</bpm>
<rpm>0.00</rpm>
</extensions>
</trkpt>
<trkpt lat="64.018905640" lon="-19.009273529">
<ele>583.9</ele>
<time>2012-07-23T12:20:44Z</time>
<speed>1.060000</speed>
<extensions>
<speed>1.1</speed>
<temp>0.00</temp>
<bpm>0</bpm>
<rpm>0.00</rpm>
</extensions>
</trkpt>
<trkpt lat="64.018699646" lon="-19.011404037">
<ele>584.4</ele>
<time>2012-07-23T12:22:09Z</time>
<speed>1.500000</speed>
<extensions>
<speed>1.5</speed>
<temp>0.00</temp>
<bpm>0</bpm>
<rpm>0.00</rpm>
</extensions>
</trkpt>
<trkpt lat="64.018180847" lon="-19.012966156">
<ele>584.4</ele>
<time>2012-07-23T12:23:24Z</time>
<speed>1.210000</speed>
<extensions>
<speed>1.2</speed>
<temp>0.00</temp>
<bpm>0</bpm>
<rpm>0.00</rpm>
</extensions>
</trkpt>
<trkpt lat="64.017654419" lon="-19.013721466">
<ele>585.1</ele>
<time>2012-07-23T12:24:19Z</time>
<speed>1.560000</speed>
<extensions>
<speed>1.6</speed>
<temp>0.00</temp>
<bpm>0</bpm>
<rpm>0.00</rpm>
</extensions>
</trkpt>
<trkpt lat="64.017509460" lon="-19.014286041">
<ele>584.9</ele>
<time>2012-07-23T12:24:44Z</time>
<speed>1.030000</speed>
<extensions>
<speed>1.0</speed>
<temp>0.00</temp>
<bpm>0</bpm>
<rpm>0.00</rpm>
</extensions>
</trkpt>
<trkpt lat="64.017913818" lon="-19.018533707">
<ele>584.1</ele>
<time>2012-07-23T12:27:34Z</time>
<speed>1.280000</speed>
<extensions>
<speed>1.3</speed>
<temp>0.00</temp>
<bpm>0</bpm>
<rpm>0.00</rpm>
</extensions>
</trkpt>
<trkpt lat="64.017723083" lon="-19.020469666">
<ele>582.2</ele>
<time>2012-07-23T12:28:49Z</time>
<speed>1.390000</speed>
<extensions>
<speed>1.4</speed>
<temp>0.00</temp>
<bpm>0</bpm>
<rpm>0.00</rpm>
</extensions>
</trkpt>
<trkpt lat="64.015625000" lon="-19.022867203">
<ele>583.8</ele>
<time>2012-07-23T12:32:14Z</time>
<speed>1.110000</speed>
<extensions>
<speed>1.1</speed>
<temp>0.00</temp>
<bpm>0</bpm>
<rpm>0.00</rpm>
</extensions>
</trkpt>
<trkpt lat="64.014083862" lon="-19.024177551">
<ele>586.7</ele>
<time>2012-07-23T12:35:04Z</time>
<speed>1.480000</speed>
<extensions>
<speed>1.5</speed>
<temp>0.00</temp>
<bpm>0</bpm>
<rpm>0.00</rpm>
</extensions>
</trkpt>
<trkpt lat="64.012107849" lon="-19.028022766">
<ele>590.7</ele>
<time>2012-07-23T12:38:24Z</time>
<speed>1.450000</speed>
<extensions>
<speed>1.4</speed>
<temp>0.00</temp>
<bpm>0</bpm>
<rpm>0.00</rpm>
</extensions>
</trkpt>
<trkpt lat="64.010955811" lon="-19.031976700">
<ele>587.6</ele>
<time>2012-07-23T12:41:24Z</time>
<speed>1.510000</speed>
<extensions>
<speed>1.5</speed>
<temp>0.00</temp>
<bpm>0</bpm>
<rpm>0.00</rpm>
</extensions>
</trkpt>
<trkpt lat="64.010559082" lon="-19.036317825">
<ele>585.4</ele>
<time>2012-07-23T12:44:14Z</time>
<speed>1.160000</speed>
<extensions>
<speed>1.2</speed>
<temp>0.00</temp>
<bpm>0</bpm>
<rpm>0.00</rpm>
</extensions>
</trkpt>
<trkpt lat="64.009956360" lon="-19.038993835">
<ele>589.2</ele>
<time>2012-07-23T12:46:09Z</time>
<speed>1.410000</speed>
<extensions>
<speed>1.4</speed>
<temp>0.00</temp>
<bpm>0</bpm>
<rpm>0.00</rpm>
</extensions>
</trkpt>
<trkpt lat="64.009735107" lon="-19.039407730">
<ele>589.1</ele>
<time>2012-07-23T12:46:34Z</time>
<speed>1.240000</speed>
<extensions>
<speed>1.2</speed>
<temp>0.00</temp>
<bpm>0</bpm>
<rpm>0.00</rpm>
</extensions>
</trkpt>
<trkpt lat="64.008728027" lon="-19.040111542">
<ele>588.6</ele>
<time>2012-07-23T12:47:59Z</time>
<speed>1.390000</speed>
<extensions>
<speed>1.4</speed>
<temp>0.00</temp>
<bpm>0</bpm>
<rpm>0.00</rpm>
</extensions>
</trkpt>
<trkpt lat="64.008041382" lon="-19.038217545">
<ele>588.8</ele>
<time>2012-07-23T12:49:34Z</time>
<speed>1.300000</speed>
<extensions>
<speed>1.3</speed>
<temp>0.00</temp>
<bpm>0</bpm>
<rpm>0.00</rpm>
</extensions>
</trkpt>
<trkpt lat="64.007263184" lon="-19.038043976">
<ele>588.5</ele>
<time>2012-07-23T12:50:34Z</time>
<speed>1.390000</speed>
<extensions>
<speed>1.4</speed>
<temp>0.00</temp>
<bpm>0</bpm>
<rpm>0.00</rpm>
</extensions>
</trkpt>
<trkpt lat="64.006858826" lon="-19.037630081">
<ele>588.7</ele>
<time>2012-07-23T12:51:09Z</time>
<speed>1.410000</speed>
<extensions>
<speed>1.4</speed>
<temp>0.00</temp>
<bpm>0</bpm>
<rpm>0.00</rpm>
</extensions>
</trkpt>
<trkpt lat="64.006477356" lon="-19.038105011">
<ele>588.6</ele>
<time>2012-07-23T12:51:54Z</time>
<speed>0.320000</speed>
<extensions>
<speed>0.3</speed>
<temp>0.00</temp>
<bpm>0</bpm>
<rpm>0.00</rpm>
</extensions>
</trkpt>
<trkpt lat="64.005432129" lon="-19.036424637">
<ele>584.6</ele>
<time>2012-07-23T12:53:44Z</time>
<speed>1.340000</speed>
<extensions>
<speed>1.3</speed>
<temp>0.00</temp>
<bpm>0</bpm>
<rpm>0.00</rpm>
</extensions>
</trkpt>
<trkpt lat="64.004714966" lon="-19.036289215">
<ele>581.9</ele>
<time>2012-07-23T12:56:24Z</time>
<speed>1.400000</speed>
<extensions>
<speed>1.4</speed>
<temp>0.00</temp>
<bpm>0</bpm>
<rpm>0.00</rpm>
</extensions>
</trkpt>
<trkpt lat="64.004699707" lon="-19.036846161">
<ele>582.3</ele>
<time>2012-07-23T12:56:44Z</time>
<speed>1.290000</speed>
<extensions>
<speed>1.3</speed>
<temp>0.00</temp>
<bpm>0</bpm>
<rpm>0.00</rpm>
</extensions>
</trkpt>
<trkpt lat="64.004402161" lon="-19.037658691">
<ele>582.8</ele>
<time>2012-07-23T12:57:19Z</time>
<speed>1.360000</speed>
<extensions>
<speed>1.4</speed>
<temp>0.00</temp>
<bpm>0</bpm>
<rpm>0.00</rpm>
</extensions>
</trkpt>
<trkpt lat="64.003684998" lon="-19.038873672">
<ele>582.3</ele>
<time>2012-07-23T12:58:24Z</time>
<speed>1.440000</speed>
<extensions>
<speed>1.4</speed>
<temp>0.00</temp>
<bpm>0</bpm>
<rpm>0.00</rpm>
</extensions>
</trkpt>
<trkpt lat="64.002326965" lon="-19.042640686">
<ele>584.0</ele>
<time>2012-07-23T13:01:04Z</time>
<speed>1.460000</speed>
<extensions>
<speed>1.5</speed>
<temp>0.00</temp>
<bpm>0</bpm>
<rpm>0.00</rpm>
</extensions>
</trkpt>
<trkpt lat="64.001556396" lon="-19.047918320">
<ele>594.6</ele>
<time>2012-07-23T13:04:34Z</time>
<speed>1.450000</speed>
<extensions>
<speed>1.4</speed>
<temp>0.00</temp>
<bpm>0</bpm>
<rpm>0.00</rpm>
</extensions>
</trkpt>
<trkpt lat="64.001174927" lon="-19.049413681">
<ele>595.7</ele>
<time>2012-07-23T13:05:34Z</time>
<speed>1.420000</speed>
<extensions>
<speed>1.4</speed>
<temp>0.00</temp>
<bpm>0</bpm>
<rpm>0.00</rpm>
</extensions>
</trkpt>
<trkpt lat="64.000610352" lon="-19.050294876">
<ele>596.4</ele>
<time>2012-07-23T13:06:29Z</time>
<speed>1.410000</speed>
<extensions>
<speed>1.4</speed>
<temp>0.00</temp>
<bpm>0</bpm>
<rpm>0.00</rpm>
</extensions>
</trkpt>
<trkpt lat="63.999729156" lon="-19.051004410">
<ele>595.0</ele>
<time>2012-07-23T13:07:39Z</time>
<speed>1.440000</speed>
<extensions>
<speed>1.4</speed>
<temp>0.00</temp>
<bpm>0</bpm>
<rpm>0.00</rpm>
</extensions>
</trkpt>
<trkpt lat="63.999271393" lon="-19.051183701">
<ele>592.7</ele>
<time>2012-07-23T13:08:14Z</time>
<speed>1.520000</speed>
<extensions>
<speed>1.5</speed>
<temp>0.00</temp>
<bpm>0</bpm>
<rpm>0.00</rpm>
</extensions>
</trkpt>
<trkpt lat="63.998653412" lon="-19.050901413">
<ele>587.7</ele>
<time>2012-07-23T13:09:09Z</time>
<speed>1.540000</speed>
<extensions>
<speed>1.5</speed>
<temp>0.00</temp>
<bpm>0</bpm>
<rpm>0.00</rpm>
</extensions>
</trkpt>
<trkpt lat="63.998008728" lon="-19.051527023">
<ele>585.8</ele>
<time>2012-07-23T13:10:04Z</time>
<speed>0.930000</speed>
<extensions>
<speed>0.9</speed>
<temp>0.00</temp>
<bpm>0</bpm>
<rpm>0.00</rpm>
</extensions>
</trkpt>
<trkpt lat="63.996921539" lon="-19.055990219">
<ele>589.3</ele>
<time>2012-07-23T13:12:59Z</time>
<speed>1.820000</speed>
<extensions>
<speed>1.8</speed>
<temp>0.00</temp>
<bpm>0</bpm>
<rpm>0.00</rpm>
</extensions>
</trkpt>
<trkpt lat="63.995674133" lon="-19.059165955">
<ele>589.4</ele>
<time>2012-07-23T13:15:19Z</time>
<speed>1.560000</speed>
<extensions>
<speed>1.6</speed>
<temp>0.00</temp>
<bpm>0</bpm>
<rpm>0.00</rpm>
</extensions>
</trkpt>
<trkpt lat="63.995330811" lon="-19.059623718">
<ele>588.9</ele>
<time>2012-07-23T13:15:49Z</time>
<speed>1.520000</speed>
<extensions>
<speed>1.5</speed>
<temp>0.00</temp>
<bpm>0</bpm>
<rpm>0.00</rpm>
</extensions>
</trkpt>
<trkpt lat="63.994606018" lon="-19.059864044">
<ele>588.2</ele>
<time>2012-07-23T13:16:44Z</time>
<speed>1.660000</speed>
<extensions>
<speed>1.7</speed>
<temp>0.00</temp>
<bpm>0</bpm>
<rpm>0.00</rpm>
</extensions>
</trkpt>
<trkpt lat="63.994556427" lon="-19.060655594">
<ele>590.2</ele>
<time>2012-07-23T13:17:44Z</time>
<speed>1.020000</speed>
<extensions>
<speed>1.0</speed>
<temp>0.00</temp>
<bpm>0</bpm>
<rpm>0.00</rpm>
</extensions>
</trkpt>
<trkpt lat="63.994392395" lon="-19.060907364">
<ele>590.5</ele>
<time>2012-07-23T13:17:59Z</time>
<speed>1.640000</speed>
<extensions>
<speed>1.6</speed>
<temp>0.00</temp>
<bpm>0</bpm>
<rpm>0.00</rpm>
</extensions>
</trkpt>
<trkpt lat="63.993682861" lon="-19.060508728">
<ele>587.7</ele>
<time>2012-07-23T13:18:59Z</time>
<speed>0.760000</speed>
<extensions>
<speed>0.8</speed>
<temp>0.00</temp>
<bpm>0</bpm>
<rpm>0.00</rpm>
</extensions>
</trkpt>
<trkpt lat="63.993442535" lon="-19.060657501">
<ele>588.2</ele>
<time>2012-07-23T13:19:24Z</time>
<speed>1.140000</speed>
<extensions>
<speed>1.1</speed>
<temp>0.00</temp>
<bpm>0</bpm>
<rpm>0.00</rpm>
</extensions>
</trkpt>
<trkpt lat="63.991931915" lon="-19.059144974">
<ele>588.8</ele>
<time>2012-07-23T13:21:54Z</time>
<speed>1.480000</speed>
<extensions>
<speed>1.5</speed>
<temp>0.00</temp>
<bpm>0</bpm>
<rpm>0.00</rpm>
</extensions>
</trkpt>
<trkpt lat="63.990882874" lon="-19.060342789">
<ele>590.0</ele>
<time>2012-07-23T13:23:24Z</time>
<speed>1.510000</speed>
<extensions>
<speed>1.5</speed>
<temp>0.00</temp>
<bpm>0</bpm>
<rpm>0.00</rpm>
</extensions>
</trkpt>
<trkpt lat="63.990009308" lon="-19.060232162">
<ele>592.5</ele>
<time>2012-07-23T13:26:54Z</time>
<speed>0.220000</speed>
<extensions>
<speed>0.2</speed>
<temp>0.00</temp>
<bpm>0</bpm>
<rpm>0.00</rpm>
</extensions>
</trkpt>
</trkseg>
</trk>
</gpx>